Time;durP1;ratioP1;P1;durP2;ratioP2;P2;SDS_P1;SDS_P2;PMS_P1;PMS_P2;Temp;Humidity;BMP_temperature;BMP_pressure;BME280_temperature;BME280_humidity;BME280_pressure;Samples;Min_cycle;Max_cycle;Signal;HPM_P1;HPM_P2
2023/07/13 00:02:33;;;;;;;7.03;5.53;;;;;;;22.98;60.21;95143.16;6099222;23;20617;-69
2023/07/13 00:05:19;;;;;;;6.82;5.30;;;;;;;22.99;60.19;95138.34;6099223;23;20172;-69
2023/07/13 00:08:08;;;;;;;6.32;5.75;;;;;;;22.96;60.31;95134.38;6101065;23;20183;-69
2023/07/13 00:10:55;;;;;;;6.45;5.70;;;;;;;22.95;60.37;95132.78;6101321;23;20175;-69
2023/07/13 00:13:41;;;;;;;5.70;5.20;;;;;;;22.92;59.68;95125.22;6100978;23;20176;-69
2023/07/13 00:16:26;;;;;;;7.00;5.63;;;;;;;22.92;60.47;95124.41;6100912;23;20636;-69
2023/07/13 00:19:13;;;;;;;7.25;5.68;;;;;;;22.87;60.78;95122.06;6101256;23;20225;-69
2023/07/13 00:21:59;;;;;;;6.93;5.50;;;;;;;22.78;60.72;95126.25;6100885;23;20179;-69
2023/07/13 00:24:47;;;;;;;5.90;5.13;;;;;;;22.74;61.36;95121.91;6100910;23;20224;-69
2023/07/13 00:27:35;;;;;;;6.13;5.53;;;;;;;22.69;61.47;95117.56;6100242;23;20175;-69
2023/07/13 00:30:22;;;;;;;6.07;5.47;;;;;;;22.66;61.80;95120.44;6101282;23;20215;-69
2023/07/13 00:33:09;;;;;;;5.90;5.40;;;;;;;22.59;62.11;95127.81;6110509;23;20232;-69
2023/07/13 00:35:55;;;;;;;6.03;5.10;;;;;;;22.42;61.59;95122.50;6101003;23;20194;-69
2023/07/13 00:38:41;;;;;;;6.82;5.18;;;;;;;22.36;61.93;95119.38;6100831;23;20207;-69
2023/07/13 00:41:28;;;;;;;5.75;5.18;;;;;;;22.31;61.79;95119.88;6101010;23;20271;-69
2023/07/13 00:44:16;;;;;;;5.72;5.00;;;;;;;22.24;61.49;95126.41;6100680;23;20225;-69
2023/07/13 00:47:02;;;;;;;5.65;5.03;;;;;;;22.21;61.40;95126.47;6110744;23;20172;-69
2023/07/13 00:49:47;;;;;;;5.15;4.70;;;;;;;22.17;61.36;95131.38;6104522;23;20244;-69
2023/07/13 00:52:34;;;;;;;5.25;4.75;;;;;;;22.17;61.34;95122.94;6100855;23;20233;-69
2023/07/13 00:55:24;;;;;;;7.28;5.28;;;;;;;22.19;61.63;95120.50;6100785;23;20514;-69
2023/07/13 00:58:12;;;;;;;5.85;5.25;;;;;;;22.19;61.93;95120.50;6101069;23;20195;-69
2023/07/13 01:00:58;;;;;;;5.65;5.10;;;;;;;22.21;62.42;95124.47;6100795;23;20223;-69
2023/07/13 01:03:47;;;;;;;5.82;5.10;;;;;;;22.20;62.24;95114.44;6100475;23;20175;-69
2023/07/13 01:06:34;;;;;;;6.20;4.90;;;;;;;22.21;62.34;95112.44;6110548;23;20175;-69
2023/07/13 01:09:20;;;;;;;6.50;5.03;;;;;;;22.22;61.90;95117.63;6100703;23;20674;-69
2023/07/13 01:12:08;;;;;;;6.55;5.25;;;;;;;22.17;62.86;95120.91;6110172;23;20180;-69
2023/07/13 01:15:01;;;;;;;7.00;5.60;;;;;;;22.06;62.37;95118.25;6100374;23;20171;-69
2023/07/13 01:17:47;;;;;;;5.82;5.32;;;;;;;22.02;62.61;95127.97;6100080;23;20461;-69
2023/07/13 01:20:36;;;;;;;10.35;5.88;;;;;;;21.93;62.64;95114.44;6100281;23;20176;-69
2023/07/13 01:23:28;;;;;;;5.65;4.90;;;;;;;21.88;62.71;95117.75;6100596;23;20184;-69
2023/07/13 01:26:14;;;;;;;5.55;5.05;;;;;;;21.88;62.90;95110.13;6110086;23;20172;-69
2023/07/13 01:29:01;;;;;;;6.72;5.10;;;;;;;21.91;62.17;95107.69;6100494;23;20231;-69
2023/07/13 01:31:47;;;;;;;5.43;4.93;;;;;;;21.96;62.19;95102.38;6100032;23;20228;-69
2023/07/13 01:34:33;;;;;;;5.75;5.25;;;;;;;22.00;61.91;95107.94;6110325;23;20231;-69
2023/07/13 01:37:18;;;;;;;5.40;4.90;;;;;;;21.98;62.25;95108.38;6100428;23;20195;-69
2023/07/13 01:40:08;;;;;;;6.65;5.20;;;;;;;21.95;63.34;95102.81;6100457;23;20175;-69
2023/07/13 01:42:54;;;;;;;5.60;5.10;;;;;;;21.88;63.22;95100.91;6100080;23;20312;-69
2023/07/13 01:45:40;;;;;;;6.88;5.55;;;;;;;21.84;63.20;95102.97;6099974;23;20248;-69
2023/07/13 01:48:26;;;;;;;5.97;5.40;;;;;;;21.78;63.38;95099.84;6100361;23;20231;-69
2023/07/13 01:51:13;;;;;;;6.97;5.80;;;;;;;21.75;63.10;95102.69;6100271;23;20513;-69
2023/07/13 01:53:59;;;;;;;6.15;5.60;;;;;;;21.72;63.45;95106.38;6110107;23;20271;-69
2023/07/13 01:56:47;;;;;;;5.88;5.35;;;;;;;21.65;63.82;95109.31;6100179;23;20275;-69
2023/07/13 01:59:34;;;;;;;6.03;5.50;;;;;;;21.59;63.46;95103.34;6100490;23;20243;-69
2023/07/13 02:02:23;;;;;;;8.43;5.30;;;;;;;21.57;63.69;95103.78;6109577;23;20300;-69
2023/07/13 02:05:09;;;;;;;6.18;5.57;;;;;;;21.57;64.08;95115.00;6100253;23;20179;-69
2023/07/13 02:07:58;;;;;;;5.55;5.10;;;;;;;21.58;63.78;95113.78;6099830;23;20170;-69
2023/07/13 02:10:44;;;;;;;6.32;5.38;;;;;;;21.58;64.32;95121.41;6100210;23;20176;-69
2023/07/13 02:13:32;;;;;;;8.10;5.75;;;;;;;21.53;64.58;95124.69;6099781;23;20224;-69
2023/07/13 02:16:18;;;;;;;7.32;5.72;;;;;;;21.49;64.71;95123.94;6099993;23;20488;-69
2023/07/13 02:19:04;;;;;;;6.80;5.85;;;;;;;21.47;64.72;95124.38;6109554;23;20171;-69
2023/07/13 02:21:49;;;;;;;6.50;5.88;;;;;;;21.49;64.62;95127.53;6100116;23;20271;-69
2023/07/13 02:24:38;;;;;;;7.82;5.88;;;;;;;21.51;64.86;95121.53;6100039;23;20176;-69
2023/07/13 02:27:26;;;;;;;7.28;5.72;;;;;;;21.50;65.01;95123.53;6109760;23;20251;-69
2023/07/13 02:30:17;;;;;;;9.07;5.75;;;;;;;21.53;64.66;95124.69;6099340;23;20692;-69
2023/07/13 02:33:03;;;;;;;6.18;5.60;;;;;;;21.54;64.75;95129.88;6099989;23;20180;-69
2023/07/13 02:35:50;;;;;;;6.90;6.30;;;;;;;21.53;65.37;95127.50;6099855;23;20227;-69
2023/07/13 02:38:36;;;;;;;6.68;5.95;;;;;;;21.46;65.20;95124.78;6109674;23;20227;-69
2023/07/13 02:41:23;;;;;;;7.38;6.20;;;;;;;21.33;65.74;95125.38;6099590;23;20226;-69
2023/07/13 02:44:08;;;;;;;8.15;6.88;;;;;;;21.28;65.89;95125.00;6099509;23;20172;-69
2023/07/13 02:46:57;;;;;;;8.70;5.93;;;;;;;21.26;65.92;95130.25;6109648;23;20224;-69
2023/07/13 02:49:44;;;;;;;6.72;5.65;;;;;;;21.25;65.94;95123.84;6099829;23;20235;-69
2023/07/13 02:52:30;;;;;;;6.93;6.15;;;;;;;21.17;66.35;95130.78;6109553;23;20575;-69
2023/07/13 02:55:17;;;;;;;7.53;6.80;;;;;;;21.19;66.34;95122.72;6109601;23;20168;-69
2023/07/13 02:58:03;;;;;;;6.63;5.90;;;;;;;21.18;66.69;95126.75;6099333;23;20212;-69
2023/07/13 03:00:49;;;;;;;6.20;5.57;;;;;;;21.21;66.43;95127.91;6099814;23;20596;-69
2023/07/13 03:03:39;;;;;;;7.60;5.97;;;;;;;21.21;66.41;95131.53;6109591;23;20195;-69
2023/07/13 03:06:25;;;;;;;6.68;6.07;;;;;;;21.21;66.80;95133.53;6099783;23;20191;-69
2023/07/13 03:09:13;;;;;;;7.50;6.80;;;;;;;21.23;67.00;95142.31;6099696;23;20227;-69
2023/07/13 03:11:59;;;;;;;7.72;6.90;;;;;;;21.24;66.68;95138.28;6099677;23;20190;-69
2023/07/13 03:14:46;;;;;;;8.43;6.63;;;;;;;21.22;66.73;95144.31;6099798;23;20244;-69
2023/07/13 03:17:32;;;;;;;8.60;6.57;;;;;;;21.23;67.00;95140.28;6109385;23;20270;-69
2023/07/13 03:20:20;;;;;;;7.85;7.03;;;;;;;21.22;67.25;95138.72;6099748;23;20175;-69
2023/07/13 03:23:05;;;;;;;7.43;6.38;;;;;;;21.20;67.06;95135.50;6099748;23;20175;-69
2023/07/13 03:26:02;;;;;;;7.70;7.00;;;;;;;21.17;67.24;95136.38;6099346;23;20243;-69
2023/07/13 03:28:48;;;;;;;9.20;7.20;;;;;;;21.13;67.46;95147.63;6109430;23;20175;-69
2023/07/13 03:31:37;;;;;;;7.15;6.47;;;;;;;21.15;67.84;95139.59;6099699;23;20215;-69
2023/07/13 03:34:22;;;;;;;11.35;6.95;;;;;;;21.16;67.33;95140.38;6099650;23;20172;-69
2023/07/13 03:37:10;;;;;;;8.18;7.38;;;;;;;21.19;67.78;95147.16;6099535;23;20203;-69
2023/07/13 03:39:56;;;;;;;8.88;7.55;;;;;;;21.18;67.94;95146.38;6099695;23;20183;-69
2023/07/13 03:42:42;;;;;;;7.82;7.10;;;;;;;21.18;68.35;95143.56;6101200;23;20577;-69
2023/07/13 03:45:27;;;;;;;10.50;7.53;;;;;;;21.20;68.84;95143.13;6101621;23;20191;-69
2023/07/13 03:48:15;;;;;;;8.02;7.18;;;;;;;21.14;69.02;95149.22;6101219;23;20172;-69
2023/07/13 03:51:01;;;;;;;14.80;7.55;;;;;;;21.13;69.15;95150.44;6101578;23;20522;-69
2023/07/13 03:53:49;;;;;;;12.38;7.35;;;;;;;21.15;69.34;95152.81;6101613;23;20172;-69
2023/07/13 03:56:35;;;;;;;10.15;7.88;;;;;;;21.14;69.18;95145.63;6101330;23;20200;-69
2023/07/13 03:59:22;;;;;;;9.70;7.90;;;;;;;21.14;69.31;95142.81;6101438;23;20172;-69
2023/07/13 04:02:07;;;;;;;9.82;7.57;;;;;;;21.17;69.58;95139.19;6111172;23;20220;-69
2023/07/13 04:04:54;;;;;;;13.55;9.35;;;;;;;21.17;69.59;95133.56;6101080;23;20175;-69
2023/07/13 04:07:40;;;;;;;11.65;9.88;;;;;;;21.19;69.93;95141.56;6101406;23;20253;-69
2023/07/13 04:10:30;;;;;;;12.00;9.43;;;;;;;21.24;70.53;95138.28;6100965;23;20216;-69
2023/07/13 04:13:16;;;;;;;11.52;9.70;;;;;;;21.26;70.10;95139.44;6101067;23;20180;-69
2023/07/13 04:16:02;;;;;;;13.45;9.68;;;;;;;21.28;70.01;95134.22;6100904;23;20183;-69
2023/07/13 04:18:49;;;;;;;11.70;9.63;;;;;;;21.31;70.35;95138.19;6101188;23;20191;-69
2023/07/13 04:21:36;;;;;;;10.43;9.40;;;;;;;21.31;70.51;95141.78;6110654;23;20176;-69
2023/07/13 04:24:23;;;;;;;9.88;8.77;;;;;;;21.34;70.82;95148.59;6110620;23;20255;-69
2023/07/13 04:27:09;;;;;;;12.48;9.52;;;;;;;21.37;70.87;95150.56;6120760;23;20532;-69
2023/07/13 04:29:55;;;;;;;12.65;9.73;;;;;;;21.38;70.72;95160.56;6100950;23;20171;-69
2023/07/13 04:32:42;;;;;;;12.70;9.90;;;;;;;21.44;70.82;95155.28;6100798;23;20462;-69
2023/07/13 04:35:28;;;;;;;11.27;9.35;;;;;;;21.48;70.59;95159.63;6110807;23;20172;-70
2023/07/13 04:38:15;;;;;;;10.20;9.15;;;;;;;21.52;70.42;95162.38;6100624;23;20196;-70
2023/07/13 04:41:03;;;;;;;10.23;9.20;;;;;;;21.57;69.79;95170.34;6100769;23;20236;-70
2023/07/13 04:43:53;;;;;;;11.23;9.40;;;;;;;21.60;69.44;95175.09;6110387;23;20247;-70
2023/07/13 04:46:38;;;;;;;9.93;8.93;;;;;;;21.62;70.13;95181.88;6100623;23;20184;-69
2023/07/13 04:49:25;;;;;;;11.20;9.65;;;;;;;21.66;70.14;95173.41;6101024;23;20285;-69
2023/07/13 04:52:11;;;;;;;10.00;8.82;;;;;;;21.70;70.33;95176.97;6100537;23;20451;-69
2023/07/13 04:55:01;;;;;;;10.32;9.13;;;;;;;21.69;70.15;95178.19;6100902;23;20179;-69
2023/07/13 04:57:47;;;;;;;9.70;8.75;;;;;;;21.72;69.90;95187.78;6100824;23;20293;-69
2023/07/13 05:00:35;;;;;;;9.27;8.30;;;;;;;21.76;68.51;95177.31;6100372;23;20568;-69
2023/07/13 05:03:21;;;;;;;9.30;8.43;;;;;;;21.78;69.00;95183.28;6100833;23;20179;-69
2023/07/13 05:06:10;;;;;;;9.23;8.38;;;;;;;21.80;69.10;95181.63;6100371;23;20263;-69
2023/07/13 05:08:57;;;;;;;9.98;8.98;;;;;;;21.83;68.75;95180.78;6100838;23;20191;-69
2023/07/13 05:11:42;;;;;;;9.60;8.70;;;;;;;21.83;68.91;95189.22;6100396;23;20232;-69
2023/07/13 05:14:27;;;;;;;10.40;9.43;;;;;;;21.84;68.45;95178.78;6100486;23;20180;-69
2023/07/13 05:17:16;;;;;;;9.65;8.65;;;;;;;21.88;68.56;95193.56;6100548;23;20287;-69
2023/07/13 05:20:04;;;;;;;10.07;8.85;;;;;;;21.91;68.19;95189.91;6100279;23;20175;-69
2023/07/13 05:22:51;;;;;;;12.55;10.05;;;;;;;21.93;67.92;95193.06;6100627;23;20175;-70
2023/07/13 05:25:36;;;;;;;11.63;9.25;;;;;;;21.96;68.00;95189.41;6100623;23;20171;-70
2023/07/13 05:28:24;;;;;;;10.88;9.73;;;;;;;21.98;68.69;95191.81;6110380;23;20512;-69
2023/07/13 05:31:10;;;;;;;10.75;9.57;;;;;;;21.99;68.65;95193.41;6100040;23;20223;-69
2023/07/13 05:34:02;;;;;;;11.60;9.20;;;;;;;22.04;68.62;95195.72;6109993;23;20271;-69
2023/07/13 05:36:49;;;;;;;13.02;9.50;;;;;;;22.09;68.67;95201.66;6100437;23;20176;-69
2023/07/13 05:39:35;;;;;;;10.85;9.75;;;;;;;22.08;68.56;95194.47;6100411;23;20172;-69
2023/07/13 05:42:21;;;;;;;10.35;9.18;;;;;;;22.09;68.63;95198.84;6100421;23;20200;-70
2023/07/13 05:45:08;;;;;;;10.07;9.13;;;;;;;22.11;68.40;95202.03;6100061;23;20171;-70
2023/07/13 05:47:54;;;;;;;9.88;8.90;;;;;;;22.16;68.77;95194.38;6100287;23;20239;-69
2023/07/13 05:50:42;;;;;;;10.90;9.80;;;;;;;22.24;68.23;95195.84;6100362;23;20195;-69
2023/07/13 05:53:28;;;;;;;11.20;9.98;;;;;;;22.28;68.33;95186.13;6099920;23;20260;-69
2023/07/13 05:56:15;;;;;;;11.40;10.38;;;;;;;22.33;67.47;95188.47;6100266;23;20625;-69
2023/07/13 05:59:01;;;;;;;10.45;9.43;;;;;;;22.35;67.87;95191.66;6100202;23;20199;-69
2023/07/13 06:01:48;;;;;;;13.13;11.25;;;;;;;22.42;67.08;95187.94;6099887;23;20192;-69
2023/07/13 06:04:36;;;;;;;11.82;10.77;;;;;;;22.48;66.89;95179.81;6100123;23;20175;-69
2023/07/13 06:07:24;;;;;;;12.63;11.10;;;;;;;22.53;66.43;95179.31;6100159;23;20176;-69
2023/07/13 06:10:10;;;;;;;11.45;10.35;;;;;;;22.58;66.94;95182.41;6100116;23;20192;-69
2023/07/13 06:12:57;;;;;;;11.98;10.73;;;;;;;22.63;66.18;95183.97;6109861;23;20220;-69
2023/07/13 06:15:43;;;;;;;13.60;10.73;;;;;;;22.69;64.59;95187.84;6099755;23;20252;-70
2023/07/13 06:18:29;;;;;;;11.13;9.95;;;;;;;22.72;64.02;95187.00;6099622;23;20195;-69
2023/07/13 06:21:16;;;;;;;10.77;9.80;;;;;;;22.78;63.24;95198.56;6099721;23;20191;-69
2023/07/13 06:24:05;;;;;;;10.20;9.20;;;;;;;22.80;62.92;95202.53;6099680;23;20251;-69
2023/07/13 06:26:51;;;;;;;10.50;9.38;;;;;;;22.86;62.79;95202.03;6100006;23;20175;-69
2023/07/13 06:29:37;;;;;;;11.43;9.45;;;;;;;22.89;62.03;95196.34;6099611;23;20632;-70
2023/07/13 06:32:22;;;;;;;12.30;9.45;;;;;;;22.96;62.57;95192.63;6100203;23;20240;-69
2023/07/13 06:35:13;;;;;;;11.15;10.00;;;;;;;23.01;62.34;95195.72;6099602;23;20211;-69
2023/07/13 06:37:59;;;;;;;10.68;9.60;;;;;;;23.06;62.27;95195.25;6109572;23;20620;-69
2023/07/13 06:40:47;;;;;;;12.90;9.35;;;;;;;23.12;62.37;95194.72;6109344;23;20557;-69
2023/07/13 06:43:33;;;;;;;10.25;9.20;;;;;;;23.14;62.87;95187.47;6099886;23;20175;-69
2023/07/13 06:46:21;;;;;;;10.95;9.77;;;;;;;23.18;62.85;95182.56;6109300;23;20175;-69
2023/07/13 06:49:09;;;;;;;11.18;10.07;;;;;;;23.22;62.76;95188.09;6099487;23;20216;-69
2023/07/13 06:51:55;;;;;;;11.90;10.30;;;;;;;23.27;62.70;95176.34;6099837;23;20180;-70
2023/07/13 06:54:41;;;;;;;11.85;10.68;;;;;;;23.30;62.70;95186.72;6099525;23;20185;-69
2023/07/13 06:57:31;;;;;;;12.60;10.57;;;;;;;23.33;62.04;95179.44;6109438;23;20199;-69
2023/07/13 07:00:17;;;;;;;12.35;10.48;;;;;;;23.35;61.94;95185.41;6099843;23;20253;-69
2023/07/13 07:03:04;;;;;;;11.95;10.80;;;;;;;23.39;61.92;95184.16;6099509;23;20228;-69
2023/07/13 07:05:50;;;;;;;12.38;10.70;;;;;;;23.44;62.08;95189.25;6099406;23;20167;-70
2023/07/13 07:08:37;;;;;;;14.43;11.45;;;;;;;23.49;62.22;95185.94;6109191;23;20228;-69
2023/07/13 07:11:25;;;;;;;14.00;12.60;;;;;;;23.55;62.09;95183.41;6099722;23;20231;-69
2023/07/13 07:14:13;;;;;;;12.65;11.55;;;;;;;23.62;61.45;95177.63;6099725;23;20545;-69
2023/07/13 07:16:59;;;;;;;14.77;13.27;;;;;;;23.66;62.03;95178.31;6109263;23;20176;-69
2023/07/13 07:19:46;;;;;;;15.25;12.93;;;;;;;23.70;61.86;95179.06;6109137;23;20167;-69
2023/07/13 07:22:32;;;;;;;14.45;12.63;;;;;;;23.75;61.73;95186.22;6109106;23;20220;-69
2023/07/13 07:25:19;;;;;;;12.77;11.50;;;;;;;23.81;61.79;95176.00;6099696;23;20175;-69
2023/07/13 07:28:05;;;;;;;14.48;11.95;;;;;;;23.88;61.76;95172.25;6099645;23;20252;-69
2023/07/13 07:30:56;;;;;;;13.60;12.30;;;;;;;24.00;61.04;95180.00;6099848;23;20608;-69
2023/07/13 07:33:45;;;;;;;13.43;12.10;;;;;;;24.05;60.83;95173.09;6099697;23;20188;-69
2023/07/13 07:36:32;;;;;;;13.07;11.75;;;;;;;24.08;60.11;95175.03;6099622;23;20180;-69
2023/07/13 07:39:18;;;;;;;12.35;11.00;;;;;;;24.10;60.34;95158.47;6109258;23;20585;-69
2023/07/13 07:42:05;;;;;;;13.70;12.27;;;;;;;24.16;60.56;95156.72;6099674;23;20180;-69
2023/07/13 07:44:51;;;;;;;14.50;11.38;;;;;;;24.24;61.50;95153.28;6099607;23;20464;-69
2023/07/13 07:47:41;;;;;;;14.23;12.30;;;;;;;24.38;60.92;95154.94;6099333;23;20176;-69
2023/07/13 07:50:30;;;;;;;15.40;11.60;;;;;;;24.49;60.08;95155.50;6099636;23;20468;-69
2023/07/13 07:53:16;;;;;;;13.15;11.55;;;;;;;24.53;59.86;95149.78;6109012;23;20196;-69
2023/07/13 07:56:03;;;;;;;13.60;12.07;;;;;;;24.64;60.52;95149.50;6099596;23;20171;-69
2023/07/13 07:58:48;;;;;;;14.02;11.80;;;;;;;24.75;60.32;95155.63;6099575;23;20214;-69
2023/07/13 08:01:34;;;;;;;14.05;11.80;;;;;;;24.87;60.54;95146.44;6109300;23;20224;-69
2023/07/13 08:04:21;;;;;;;14.65;12.73;;;;;;;25.03;59.00;95136.38;6099352;23;20581;-69
2023/07/13 08:07:07;;;;;;;13.85;11.73;;;;;;;25.04;57.52;95129.47;6099577;23;20270;-69
2023/07/13 08:09:53;;;;;;;16.40;11.70;;;;;;;25.07;58.62;95125.78;6099130;23;20167;-69
2023/07/13 08:12:40;;;;;;;13.60;10.95;;;;;;;25.12;57.53;95123.22;6099216;23;20200;-69
2023/07/13 08:15:27;;;;;;;12.20;10.85;;;;;;;25.21;59.01;95122.56;6099510;23;20236;-70
2023/07/13 08:18:16;;;;;;;13.10;10.55;;;;;;;25.41;57.86;95116.72;6109095;23;20200;-69
2023/07/13 08:21:06;;;;;;;13.10;10.93;;;;;;;25.63;58.08;95122.53;6099525;23;20255;-69
2023/07/13 08:23:52;;;;;;;11.88;10.65;;;;;;;25.78;56.63;95117.22;6099117;23;20244;-69
2023/07/13 08:26:37;;;;;;;13.73;10.65;;;;;;;25.86;56.56;95119.44;6099208;23;20244;-69
2023/07/13 08:29:24;;;;;;;10.60;9.50;;;;;;;25.90;58.09;95119.31;6100896;23;20577;-69
2023/07/13 08:32:10;;;;;;;15.20;10.23;;;;;;;25.97;54.86;95118.31;6110308;23;20275;-70
2023/07/13 08:34:56;;;;;;;11.55;9.93;;;;;;;26.11;56.06;95109.38;6100754;23;20227;-70
2023/07/13 08:37:45;;;;;;;11.65;10.35;;;;;;;26.24;56.07;95101.66;6105154;23;20243;-70
2023/07/13 08:40:31;;;;;;;10.38;9.38;;;;;;;26.40;56.18;95098.69;6100974;23;20235;-70
2023/07/13 08:43:20;;;;;;;11.00;9.90;;;;;;;26.60;54.42;95100.47;6101110;23;20247;-70
2023/07/13 08:46:11;;;;;;;10.40;9.40;;;;;;;26.77;55.06;95096.22;6110756;23;20176;-70
2023/07/13 08:48:59;;;;;;;12.38;9.50;;;;;;;26.81;55.14;95094.06;6100997;23;20184;-70
2023/07/13 08:51:47;;;;;;;11.27;9.57;;;;;;;26.91;53.89;95109.09;6100919;23;20168;-69
2023/07/13 08:54:38;;;;;;;10.88;9.80;;;;;;;26.98;54.87;95106.00;6100972;23;20175;-70
2023/07/13 08:57:30;;;;;;;10.00;9.10;;;;;;;27.09;55.16;95116.94;6100837;23;20308;-70
2023/07/13 09:00:16;;;;;;;12.00;9.88;;;;;;;27.17;52.39;95104.13;6110294;23;20224;-70
2023/07/13 09:03:03;;;;;;;11.60;9.68;;;;;;;27.38;55.23;95113.06;6100842;23;20172;-70
2023/07/13 09:05:53;;;;;;;11.95;10.55;;;;;;;27.47;53.70;95110.28;6100384;23;20168;-70
2023/07/13 09:08:51;;;;;;;11.05;10.00;;;;;;;27.64;55.15;95127.88;6100466;23;20216;-70
2023/07/13 09:11:47;;;;;;;11.77;10.60;;;;;;;27.85;54.98;95129.88;6100650;23;20220;-70
2023/07/13 09:14:41;;;;;;;13.75;11.18;;;;;;;28.07;56.42;95119.28;6100718;23;20191;-70
2023/07/13 09:17:34;;;;;;;11.00;9.90;;;;;;;28.04;54.22;95114.56;6110178;23;20185;-70
2023/07/13 09:20:26;;;;;;;11.02;9.90;;;;;;;28.00;51.82;95122.41;6110409;23;20167;-70
2023/07/13 09:23:15;;;;;;;9.70;8.75;;;;;;;28.03;49.93;95115.00;6100641;23;20637;-70
2023/07/13 09:26:05;;;;;;;8.85;7.95;;;;;;;28.25;53.39;95124.25;6100601;23;20220;-70
2023/07/13 09:28:59;;;;;;;9.45;7.70;;;;;;;28.30;50.56;95128.50;6110022;23;20176;-70
2023/07/13 09:31:52;;;;;;;9.23;7.40;;;;;;;28.37;48.03;95121.75;6110589;23;20210;-69
2023/07/13 09:34:39;;;;;;;8.07;7.28;;;;;;;28.53;49.87;95127.16;6100131;23;20179;-69
2023/07/13 09:37:29;;;;;;;7.47;6.82;;;;;;;28.60;42.31;95134.59;6109948;23;20175;-69
2023/07/13 09:40:23;;;;;;;6.45;5.43;;;;;;;28.65;38.76;95128.28;6100162;23;20451;-70
2023/07/13 09:43:11;;;;;;;6.35;5.53;;;;;;;28.68;38.85;95116.00;6100513;23;20191;-70
2023/07/13 09:46:01;;;;;;;6.50;5.30;;;;;;;28.72;39.24;95111.78;6100029;23;20179;-69
2023/07/13 09:48:49;;;;;;;6.25;5.45;;;;;;;28.84;39.27;95110.03;6100094;23;20176;-69
2023/07/13 09:51:34;;;;;;;5.80;4.68;;;;;;;29.06;36.53;95101.41;6100048;23;20185;-70
2023/07/13 09:54:24;;;;;;;7.90;5.10;;;;;;;29.21;35.92;95095.88;6100231;23;20224;-70
2023/07/13 09:57:16;;;;;;;7.90;5.22;;;;;;;29.34;35.44;95099.34;6109986;23;20251;-70
2023/07/13 10:00:02;;;;;;;6.13;5.45;;;;;;;29.39;36.54;95098.69;6100158;23;20195;-69
2023/07/13 10:02:59;;;;;;;5.63;5.05;;;;;;;29.51;36.32;95092.03;6109693;23;20171;-70
2023/07/13 10:05:46;;;;;;;6.30;5.60;;;;;;;29.64;35.35;95080.50;6100026;23;20188;-69
2023/07/13 10:08:36;;;;;;;5.93;5.30;;;;;;;29.76;36.20;95073.03;6100147;23;20227;-69
2023/07/13 10:11:24;;;;;;;7.15;5.38;;;;;;;29.92;36.56;95066.19;6099787;23;20179;-69
2023/07/13 10:14:14;;;;;;;6.03;5.45;;;;;;;30.01;36.93;95071.06;6099793;23;20175;-69
2023/07/13 10:17:04;;;;;;;6.85;5.28;;;;;;;30.12;36.32;95074.16;6099366;23;20600;-69
2023/07/13 10:19:52;;;;;;;7.93;5.75;;;;;;;30.23;35.24;95076.50;6099619;23;20215;-69
2023/07/13 10:22:40;;;;;;;5.97;5.38;;;;;;;30.32;34.79;95077.25;6099688;23;20194;-69
2023/07/13 10:25:28;;;;;;;6.22;5.57;;;;;;;30.41;34.72;95079.25;6099949;23;20187;-69
2023/07/13 10:28:30;;;;;;;5.70;5.10;;;;;;;30.46;32.77;95081.44;6100046;23;20175;-69
2023/07/13 10:31:17;;;;;;;6.72;5.30;;;;;;;30.44;33.31;95075.44;6099980;23;20493;-69
2023/07/13 10:34:05;;;;;;;8.63;5.50;;;;;;;30.48;32.92;95063.88;6098624;23;20179;-69
2023/07/13 10:36:53;;;;;;;7.47;5.50;;;;;;;30.59;36.29;95062.06;6099508;23;20176;-69
2023/07/13 10:39:39;;;;;;;5.80;5.30;;;;;;;30.68;33.67;95064.84;6099478;23;20263;-69
2023/07/13 10:42:29;;;;;;;6.97;4.70;;;;;;;30.78;32.91;95056.25;6099911;23;20256;-69
2023/07/13 10:45:16;;;;;;;5.22;4.72;;;;;;;30.91;32.23;95060.44;6099915;23;20180;-69
2023/07/13 10:48:03;;;;;;;5.40;4.90;;;;;;;31.00;33.15;95048.16;6099927;23;20197;-69
2023/07/13 10:50:52;;;;;;;7.72;4.93;;;;;;;31.06;33.89;95040.53;6099540;23;20180;-69
2023/07/13 10:53:41;;;;;;;7.15;5.13;;;;;;;31.07;33.24;95042.09;6109566;23;20454;-69
2023/07/13 10:56:30;;;;;;;6.88;5.65;;;;;;;31.11;33.87;95036.19;6099748;23;20188;-69
2023/07/13 10:59:20;;;;;;;7.88;5.68;;;;;;;31.20;33.63;95030.44;6099640;23;20195;-69
2023/07/13 11:02:14;;;;;;;5.90;4.97;;;;;;;31.26;31.33;95019.91;6099779;23;20176;-69
2023/07/13 11:05:20;;;;;;;6.53;5.60;;;;;;;31.30;31.91;95025.41;6109238;23;20586;-69
2023/07/13 11:08:20;;;;;;;5.95;4.85;;;;;;;31.32;32.01;95015.13;6109459;23;20179;-69
2023/07/13 11:11:38;;;;;;;6.00;5.40;;;;;;;31.39;34.08;95011.88;6099421;23;20179;-69
2023/07/13 11:14:31;;;;;;;6.80;5.68;;;;;;;31.48;32.69;94999.59;6099353;23;20470;-69
2023/07/13 11:17:39;;;;;;;7.90;5.53;;;;;;;31.59;32.92;94996.13;6099704;23;20175;-69
2023/07/13 11:20:36;;;;;;;6.43;5.72;;;;;;;31.67;34.52;95002.25;6099370;23;20196;-69
2023/07/13 11:23:32;;;;;;;8.23;5.78;;;;;;;31.67;34.32;95008.72;6099601;23;20187;-69
2023/07/13 11:26:52;;;;;;;7.63;5.95;;;;;;;31.76;34.64;95002.13;6099346;23;20195;-69
2023/07/13 11:29:40;;;;;;;6.22;5.55;;;;;;;31.87;32.42;95002.31;6093893;23;20206;-69
2023/07/13 11:32:33;;;;;;;6.95;6.30;;;;;;;31.93;36.77;94996.72;6109377;23;20184;-69
2023/07/13 11:35:24;;;;;;;6.35;5.82;;;;;;;31.93;32.99;94991.78;6099560;23;20178;-69
2023/07/13 11:38:16;;;;;;;6.95;6.30;;;;;;;31.93;32.34;94993.88;6099613;23;20171;-70
2023/07/13 11:41:05;;;;;;;7.55;6.07;;;;;;;31.98;31.94;94987.44;6099328;23;20199;-69
2023/07/13 11:43:55;;;;;;;8.00;6.35;;;;;;;31.94;32.33;94992.56;6099313;23;20247;-69
2023/07/13 11:46:56;;;;;;;6.15;5.55;;;;;;;31.89;32.92;94991.22;6099305;23;20634;-69
2023/07/13 11:49:46;;;;;;;7.72;6.38;;;;;;;31.89;33.82;94991.22;6099587;23;20171;-70
2023/07/13 11:52:36;;;;;;;6.72;6.07;;;;;;;31.91;33.68;94990.72;6099240;23;20219;-70
2023/07/13 11:55:24;;;;;;;6.70;5.78;;;;;;;31.96;33.19;94979.41;6109021;23;20176;-69
2023/07/13 11:58:12;;;;;;;6.30;5.75;;;;;;;32.06;31.20;94980.81;6109380;23;20176;-69
2023/07/13 12:01:04;;;;;;;6.30;5.35;;;;;;;32.12;32.07;94973.13;6099210;23;20172;-69
2023/07/13 12:03:51;;;;;;;8.32;5.72;;;;;;;32.23;31.19;94969.66;6101050;23;20245;-69
2023/07/13 12:06:39;;;;;;;6.78;5.60;;;;;;;32.30;31.93;94966.38;6101048;23;20179;-69
2023/07/13 12:09:28;;;;;;;5.75;5.22;;;;;;;32.43;30.81;94957.50;6101332;23;20176;-69
2023/07/13 12:12:15;;;;;;;8.57;5.35;;;;;;;32.41;31.00;94962.13;6100967;23;20263;-69
2023/07/13 12:15:06;;;;;;;6.88;5.18;;;;;;;32.41;30.20;94971.47;6101360;23;20637;-69
2023/07/13 12:17:56;;;;;;;7.70;5.28;;;;;;;32.37;31.06;94956.59;6100952;23;20251;-69
2023/07/13 12:20:42;;;;;;;6.90;5.15;;;;;;;32.42;31.90;94949.41;6101139;23;20236;-69
2023/07/13 12:23:31;;;;;;;6.57;5.07;;;;;;;32.44;30.21;94941.94;6101177;23;20469;-69
2023/07/13 12:26:05;;;;;;;6.30;5.03;;;;;;;32.56;29.45;94940.78;6100805;23;20172;-69
2023/07/13 12:28:35;;;;;;;6.95;5.82;;;;;;;32.62;30.63;94932.28;6099588;23;20164;-69
2023/07/13 12:31:06;;;;;;;5.65;5.13;;;;;;;32.61;29.62;94939.28;6101157;23;20279;-69
2023/07/13 12:33:39;;;;;;;6.95;4.88;;;;;;;32.72;28.99;94930.03;6099772;23;20184;-69
2023/07/13 12:36:07;;;;;;;7.40;5.45;;;;;;;32.73;29.46;94918.13;6100054;23;20168;-69
2023/07/13 12:38:36;;;;;;;6.85;4.72;;;;;;;32.76;32.82;94924.91;6100093;23;20180;-69
2023/07/13 12:41:05;;;;;;;6.57;5.22;;;;;;;32.81;30.33;94921.31;6100879;23;20195;-69
2023/07/13 12:43:39;;;;;;;6.13;5.13;;;;;;;32.87;29.44;94924.25;6100910;23;20165;-69
2023/07/13 12:46:18;;;;;;;6.65;4.85;;;;;;;32.95;28.71;94914.75;6100957;23;20196;-69
2023/07/13 12:48:50;;;;;;;6.85;5.05;;;;;;;32.90;28.76;94914.66;6099824;23;20191;-69
2023/07/13 12:51:22;;;;;;;6.68;5.03;;;;;;;32.86;29.93;94914.88;6099682;23;20177;-69
2023/07/13 12:53:54;;;;;;;7.65;5.05;;;;;;;32.89;28.76;94922.44;6124363;23;20173;-69
2023/07/13 12:56:24;;;;;;;6.15;5.03;;;;;;;32.83;30.30;94908.13;6099216;23;20192;-69
2023/07/13 12:58:56;;;;;;;7.07;5.45;;;;;;;32.88;29.91;94897.25;6099595;23;20183;-69
2023/07/13 13:01:28;;;;;;;6.15;4.82;;;;;;;32.97;30.14;94895.06;6100578;23;20157;-69
2023/07/13 13:03:57;;;;;;;7.75;5.05;;;;;;;33.05;29.77;94898.22;6099760;23;20177;-69